Impacts TAF Board INFO
FOR SITUATIONAL AWARENESS. NOT TO BE USED FOR FLIGHT PLANNING PURPOSES.
IDs:

KLAX - Los Angeles Intl, CA, US

Issued at 1129 UTC 22 Nov 2017
Updated at 1310 UTC 22 Nov 2017
Potential Impact None Slight Moderate High
Time1253Z 22/14Z 22/15Z 22/16Z 22/17Z 22/18Z 22/19Z 22/20Z 22/21Z 22/22Z 22/23Z 23/00Z 23/01Z 23/02Z>>
Type OBS PRVL PRVL PRVL PRVL PRVL PRVL PRVL PRVL PRVL PRVL PRVL PRVL PRVL
VIS 10 >6 >6 >6 >6 >6 >6 >6 >6 >6 >6 >6 >6 >6
CIG -- -- -- -- -- -- -- -- -- -- -- -- -- --
Cover CLR SKC SKC SKC SKC SKC SKC SKC SKC SKC SKC SKC SKC SKC
FltCat VFR VFR VFR VFR VFR VFR VFR VFR VFR VFR VFR VFR VFR VFR
WX -- -- -- -- -- -- -- -- -- -- -- -- -- --
WDir 50 VRB 50 50 50 50 50 270 270 270 270 270 270 270
WSpd 5 3 5 5 5 5 5 10 10 10 10 10 10 10
WGst -- -- -- -- -- -- -- -- -- -- -- -- -- --

Raw TAF
KLAX 221129Z 2212/2318 VRB03KT P6SM SKC
  FM221500 05005KT P6SM SKC
  FM222000 27010KT P6SM SKC
  FM230300 VRB03KT P6SM SKC
  FM231400 05005KT P6SM SKC


Raw METAR
KLAX 221253Z 05005KT 10SM CLR 20/02 A3002 RMK AO2 SLP163 T02000017
KLAX 221153Z 00000KT 10SM CLR 18/07 A3002 RMK AO2 SLP162 T01830072 10239 20167 58005
KLAX 221053Z 00000KT 10SM CLR 17/10 A3003 RMK AO2 SLP164 T01720100

METAR Board
Radar Display
Forecast Discussion

FOR SITUATIONAL AWARENESS. NOT TO BE USED FOR FLIGHT PLANNING PURPOSES.